createdAt,value
2022-08-04T00:03:13.873Z,86.10
2022-08-04T00:06:28.574Z,85.00
2022-08-04T00:09:35.065Z,86.20
2022-08-04T00:12:39.519Z,85.50
2022-08-04T00:15:37.965Z,87.80
2022-08-04T00:18:45.398Z,89.20
2022-08-04T00:21:55.511Z,90.00
2022-08-04T00:24:52.815Z,88.80
2022-08-04T00:27:49.909Z,84.90
2022-08-04T00:30:46.896Z,88.90
2022-08-04T00:33:46.349Z,89.30
2022-08-04T00:36:44.350Z,90.60
2022-08-04T00:39:42.177Z,91.30
2022-08-04T00:43:07.098Z,88.40
2022-08-04T00:46:24.770Z,89.40
2022-08-04T00:50:00.185Z,88.80
2022-08-04T00:53:27.667Z,86.20
2022-08-04T00:57:02.138Z,89.60
2022-08-04T01:00:11.916Z,90.50
2022-08-04T01:03:23.873Z,92.20
2022-08-04T01:06:41.078Z,93.00
2022-08-04T01:10:17.834Z,92.90
2022-08-04T01:13:50.663Z,92.60
2022-08-04T01:16:54.833Z,91.90
2022-08-04T01:20:10.170Z,92.00
2022-08-04T01:23:44.155Z,92.10
2022-08-04T01:27:11.995Z,92.80
2022-08-04T01:30:10.742Z,91.50
2022-08-04T01:33:12.908Z,92.40
2022-08-04T01:36:11.844Z,92.30
2022-08-04T01:39:27.909Z,92.50
2022-08-04T01:42:31.588Z,91.20
2022-08-04T01:45:30.420Z,93.10
2022-08-04T01:48:29.241Z,92.40
2022-08-04T01:51:26.397Z,92.10
2022-08-04T01:54:25.461Z,93.00
2022-08-04T01:57:37.674Z,88.60
2022-08-04T02:00:42.235Z,91.60
2022-08-04T02:04:18.796Z,90.20
2022-08-04T02:07:26.795Z,90.80
2022-08-04T02:11:20.495Z,89.70
2022-08-04T02:14:40.592Z,92.20
2022-08-04T02:17:43.491Z,91.90
2022-08-04T02:20:46.135Z,92.30
2022-08-04T02:23:46.773Z,92.90
2022-08-04T02:26:48.755Z,94.70
2022-08-04T02:30:12.048Z,94.80
2022-08-04T02:33:13.428Z,93.50
2022-08-04T02:36:22.607Z,95.30
2022-08-04T02:39:21.571Z,96.40
2022-08-04T02:42:19.299Z,92.30
2022-08-04T02:45:19.187Z,91.90
2022-08-04T02:48:30.306Z,95.70
2022-08-04T02:51:56.075Z,93.80
2022-08-04T02:54:57.809Z,92.40
2022-08-04T02:57:56.350Z,92.90
2022-08-04T03:00:53.252Z,93.70
2022-08-04T03:04:24.951Z,95.40
2022-08-04T03:08:08.699Z,96.00
2022-08-04T03:11:57.688Z,95.60
2022-08-04T03:15:30.135Z,97.40
2022-08-04T03:19:03.726Z,97.00
2022-08-04T03:22:45.061Z,97.70
2022-08-04T03:26:36.751Z,99.40
2022-08-04T03:30:06.961Z,95.10
2022-08-04T03:33:25.418Z,98.60
2022-08-04T03:37:01.029Z,99.40
2022-08-04T03:40:28.875Z,98.60
2022-08-04T03:43:59.035Z,97.90
2022-08-04T03:47:21.011Z,99.50
2022-08-04T03:51:32.296Z,98.20
2022-08-04T03:55:29.919Z,99.90
2022-08-04T03:59:12.427Z,99.90
2022-08-04T04:02:41.007Z,99.80
2022-08-04T04:06:28.752Z,99.90
2022-08-04T04:10:16.976Z,99.90
2022-08-04T04:13:52.396Z,99.90
2022-08-04T04:17:16.092Z,99.90
2022-08-04T04:20:45.532Z,99.90
2022-08-04T04:24:09.731Z,99.90
2022-08-04T04:27:28.846Z,99.90
2022-08-04T04:30:45.349Z,99.90
2022-08-04T04:34:22.895Z,99.90
2022-08-04T04:37:34.551Z,99.90
2022-08-04T04:41:10.514Z,99.90
2022-08-04T04:44:30.879Z,99.90
2022-08-04T04:48:08.164Z,99.90
2022-08-04T04:51:48.336Z,99.90
2022-08-04T04:54:51.682Z,99.40
2022-08-04T04:57:54.287Z,99.60
2022-08-04T05:01:14.911Z,99.20
2022-08-04T05:04:40.911Z,99.90
2022-08-04T05:08:04.353Z,94.50
2022-08-04T05:14:24.849Z,94.70
2022-08-04T05:15:34.369Z,97.10
2022-08-04T05:18:35.248Z,97.20
2022-08-04T05:22:04.269Z,99.90
2022-08-04T05:25:31.693Z,99.90
2022-08-04T05:28:43.251Z,98.30
2022-08-04T05:31:49.855Z,99.90
2022-08-04T05:35:00.210Z,99.80
2022-08-04T05:38:01.754Z,99.90
2022-08-04T05:40:59.512Z,99.90
2022-08-04T05:43:58.000Z,99.00
2022-08-04T05:46:59.894Z,99.90
2022-08-04T05:50:01.709Z,99.90
2022-08-04T05:53:01.318Z,99.90
2022-08-04T05:56:00.095Z,99.90
2022-08-04T05:58:58.353Z,99.90
2022-08-04T06:01:58.281Z,99.90
2022-08-04T06:04:57.305Z,99.90
2022-08-04T06:08:04.585Z,99.90
2022-08-04T06:11:12.264Z,99.90
2022-08-04T06:14:11.952Z,99.90
2022-08-04T06:18:33.338Z,99.90
2022-08-04T06:20:36.418Z,99.90
2022-08-04T06:23:37.686Z,99.90
2022-08-04T06:26:52.631Z,99.90
2022-08-04T06:29:51.852Z,99.90
2022-08-04T06:33:03.493Z,99.90
2022-08-04T06:36:06.792Z,99.90
2022-08-04T06:39:05.629Z,99.90
2022-08-04T06:42:21.659Z,99.90
2022-08-04T06:45:21.404Z,99.90
2022-08-04T06:48:20.379Z,99.90
2022-08-04T06:51:26.165Z,99.90
2022-08-04T06:54:30.525Z,99.90
2022-08-04T06:57:29.795Z,99.90
2022-08-04T07:00:27.841Z,99.90
2022-08-04T07:03:24.827Z,99.90
2022-08-04T07:06:23.167Z,99.90
2022-08-04T07:09:20.213Z,99.90
2022-08-04T07:12:21.491Z,99.90
2022-08-04T07:15:19.404Z,99.90
2022-08-04T07:18:17.021Z,99.90
2022-08-04T07:21:23.774Z,99.90
2022-08-04T07:24:20.672Z,99.90
2022-08-04T07:27:17.654Z,99.90
2022-08-04T07:30:36.949Z,99.90
2022-08-04T07:33:34.308Z,99.30
2022-08-04T07:36:39.384Z,98.70
2022-08-04T07:39:48.459Z,96.90
2022-08-04T07:42:46.176Z,97.10
2022-08-04T07:45:43.613Z,94.00
2022-08-04T07:48:41.134Z,95.20
2022-08-04T07:51:38.684Z,95.70
2022-08-04T07:54:36.233Z,96.50
2022-08-04T07:57:40.432Z,95.60
2022-08-04T08:00:39.573Z,93.70
2022-08-04T08:03:37.968Z,91.90
2022-08-04T08:06:42.647Z,93.10
2022-08-04T08:09:40.255Z,92.80
2022-08-04T08:12:51.101Z,91.60
2022-08-04T08:15:49.122Z,93.40
2022-08-04T08:18:49.959Z,90.40
2022-08-04T08:21:59.911Z,90.50
2022-08-04T08:24:57.425Z,90.50
2022-08-04T08:27:56.313Z,91.10
2022-08-04T08:30:53.598Z,90.40
2022-08-04T08:33:52.453Z,89.40
2022-08-04T08:36:59.056Z,90.20
2022-08-04T08:40:37.856Z,84.80
2022-08-04T08:44:05.092Z,86.50
2022-08-04T08:48:05.771Z,82.70
2022-08-04T08:51:33.859Z,85.00
2022-08-04T08:54:56.561Z,77.10
2022-08-04T08:58:24.826Z,80.10
2022-08-04T09:01:51.779Z,81.10
2022-08-04T09:05:39.076Z,77.30
2022-08-04T09:09:03.932Z,72.40
2022-08-04T09:12:39.042Z,76.30
2022-08-04T09:15:52.386Z,69.20
2022-08-04T09:19:02.652Z,74.90
2022-08-04T09:22:13.615Z,75.90
2022-08-04T09:25:30.776Z,66.60
2022-08-04T09:28:53.488Z,69.70
2022-08-04T09:32:10.965Z,70.00
2022-08-04T09:35:26.393Z,69.80
2022-08-04T09:38:58.063Z,66.90
2022-08-04T09:42:26.518Z,63.90
2022-08-04T09:45:56.009Z,63.90
2022-08-04T09:49:02.148Z,66.90
2022-08-04T09:52:11.567Z,60.60
2022-08-04T09:55:53.936Z,60.70
2022-08-04T09:59:23.939Z,64.00
2022-08-04T10:02:24.423Z,65.60
2022-08-04T10:06:08.632Z,64.90
2022-08-04T10:09:52.455Z,59.10
2022-08-04T10:12:56.803Z,62.70
2022-08-04T10:16:24.299Z,63.40
2022-08-04T10:19:31.572Z,58.00
2022-08-04T10:22:55.428Z,58.00
2022-08-04T10:26:58.095Z,56.80
2022-08-04T10:29:58.527Z,60.60
2022-08-04T10:33:18.172Z,60.80
2022-08-04T10:36:21.291Z,57.10
2022-08-04T10:39:43.602Z,56.70
2022-08-04T10:42:53.851Z,56.40
2022-08-04T10:46:05.603Z,60.10
2022-08-04T10:49:16.517Z,56.10
2022-08-04T10:52:33.768Z,59.00
2022-08-04T10:56:07.477Z,56.90
2022-08-04T10:59:14.181Z,58.70
2022-08-04T11:02:36.296Z,56.20
2022-08-04T11:06:03.640Z,57.70
2022-08-04T11:09:02.953Z,55.60
2022-08-04T11:12:23.297Z,53.70
2022-08-04T11:15:27.715Z,55.30
2022-08-04T11:18:41.428Z,51.10
2022-08-04T11:21:47.513Z,55.40
2022-08-04T11:25:19.298Z,51.00
2022-08-04T11:29:03.147Z,55.60
2022-08-04T11:32:05.778Z,53.80
2022-08-04T11:35:09.843Z,54.80
2022-08-04T11:38:29.062Z,55.00
2022-08-04T11:41:58.806Z,53.40
2022-08-04T11:45:07.049Z,50.30
2022-08-04T11:48:33.710Z,51.80
2022-08-04T11:51:32.036Z,51.50
2022-08-04T11:54:30.830Z,44.40
2022-08-04T11:57:35.681Z,49.70
2022-08-04T12:00:36.052Z,52.70
2022-08-04T12:04:03.144Z,49.50
2022-08-04T12:07:41.189Z,48.50
2022-08-04T12:11:21.117Z,49.50
2022-08-04T12:14:33.943Z,49.30
2022-08-04T12:18:09.231Z,51.50
2022-08-04T12:21:15.040Z,48.10
2022-08-04T12:24:23.596Z,54.90
2022-08-04T12:27:35.063Z,54.00
2022-08-04T12:30:59.211Z,46.90
2022-08-04T12:37:59.342Z,46.60
2022-08-04T12:40:59.684Z,45.40
2022-08-04T12:44:07.582Z,43.60
2022-08-04T12:47:29.046Z,47.00
2022-08-04T12:50:27.994Z,46.20
2022-08-04T12:53:50.851Z,48.90
2022-08-04T12:56:48.871Z,48.90
2022-08-04T12:59:57.181Z,46.60
2022-08-04T13:03:04.529Z,46.10
2022-08-04T13:06:01.861Z,51.80
2022-08-04T13:09:20.735Z,50.90
2022-08-04T13:12:32.214Z,47.10
2022-08-04T13:15:31.103Z,51.10
2022-08-04T13:18:36.790Z,44.70
2022-08-04T13:21:50.381Z,48.30
2022-08-04T13:24:56.999Z,45.60
2022-08-04T13:28:19.420Z,44.70
2022-08-04T13:31:26.623Z,45.60
2022-08-04T13:34:34.760Z,46.90
2022-08-04T13:37:36.033Z,45.70
2022-08-04T13:40:33.689Z,41.60
2022-08-04T13:44:16.978Z,43.70
2022-08-04T13:47:10.140Z,43.00
2022-08-04T13:50:23.867Z,46.30
2022-08-04T13:53:21.900Z,43.00
2022-08-04T13:56:19.500Z,43.00
2022-08-04T13:59:19.083Z,47.00
2022-08-04T14:02:49.167Z,44.50
2022-08-04T14:06:05.051Z,43.70
2022-08-04T14:09:22.270Z,40.40
2022-08-04T14:12:46.390Z,40.60
2022-08-04T14:16:02.617Z,41.70
2022-08-04T14:19:01.893Z,42.80
2022-08-04T14:21:58.963Z,39.70
2022-08-04T14:25:15.128Z,42.10
2022-08-04T14:28:13.229Z,45.60
2022-08-04T14:31:18.028Z,37.50
2022-08-04T14:34:30.128Z,43.90
2022-08-04T14:37:27.049Z,46.30
2022-08-04T14:40:44.982Z,38.80
2022-08-04T14:43:59.952Z,38.50
2022-08-04T14:46:59.464Z,40.40
2022-08-04T14:49:56.305Z,41.70
2022-08-04T14:53:04.718Z,46.40
2022-08-04T14:56:01.685Z,43.90
2022-08-04T14:59:03.599Z,40.50
2022-08-04T15:02:01.684Z,40.00
2022-08-04T15:04:59.759Z,39.40
2022-08-04T15:08:17.424Z,41.40
2022-08-04T15:11:22.701Z,41.30
2022-08-04T15:14:36.644Z,38.80
2022-08-04T15:17:35.177Z,45.60
2022-08-04T15:20:32.591Z,40.00
2022-08-04T15:23:38.804Z,43.60
2022-08-04T15:26:51.797Z,40.70
2022-08-04T15:30:00.338Z,42.80
2022-08-04T15:33:03.001Z,41.60
2022-08-04T15:36:56.679Z,42.00
2022-08-04T15:40:08.924Z,45.10
2022-08-04T15:43:44.980Z,36.50
2022-08-04T15:46:47.949Z,43.00
2022-08-04T15:49:45.373Z,42.90
2022-08-04T15:53:12.360Z,43.30
2022-08-04T15:56:26.592Z,41.30
2022-08-04T16:00:02.420Z,38.10
2022-08-04T16:02:59.260Z,43.10
2022-08-04T16:05:56.289Z,39.00
2022-08-04T16:08:57.856Z,47.20
2022-08-04T16:11:55.566Z,43.90
2022-08-04T16:14:52.416Z,43.90
2022-08-04T16:17:49.369Z,43.70
2022-08-04T16:20:47.383Z,39.90
2022-08-04T16:24:06.955Z,43.20
2022-08-04T16:27:12.014Z,43.80
2022-08-04T16:30:14.995Z,41.60
2022-08-04T16:33:11.906Z,41.70
2022-08-04T16:36:12.311Z,43.30
2022-08-04T16:39:19.311Z,42.40
2022-08-04T16:42:31.245Z,43.40
2022-08-04T16:45:47.594Z,45.10
2022-08-04T16:49:07.287Z,44.10
2022-08-04T16:52:09.449Z,42.70
2022-08-04T16:55:10.600Z,46.10
2022-08-04T16:58:07.736Z,41.60
2022-08-04T17:01:11.432Z,43.10
2022-08-04T17:04:28.388Z,43.90
2022-08-04T17:07:25.252Z,47.40
2022-08-04T17:10:37.828Z,44.40
2022-08-04T17:14:04.791Z,43.20
2022-08-04T17:17:04.285Z,47.00
2022-08-04T17:20:06.453Z,45.20
2022-08-04T17:24:16.257Z,47.80
2022-08-04T17:26:54.297Z,45.90
2022-08-04T17:29:51.810Z,43.80
2022-08-04T17:32:48.795Z,46.60
2022-08-04T17:35:48.761Z,48.40
2022-08-04T17:38:56.240Z,45.40
2022-08-04T17:41:57.093Z,48.70
2022-08-04T17:45:51.222Z,49.50
2022-08-04T17:48:42.446Z,50.00
2022-08-04T17:52:07.062Z,52.20
2022-08-04T17:55:06.789Z,48.90
2022-08-04T17:58:21.195Z,51.30
2022-08-04T18:01:25.978Z,50.10
2022-08-04T18:04:37.378Z,51.60
2022-08-04T18:08:39.780Z,52.30
2022-08-04T18:10:56.781Z,52.30
2022-08-04T18:13:57.118Z,53.30
2022-08-04T18:16:54.685Z,53.90
2022-08-04T18:19:53.161Z,53.20
2022-08-04T18:22:53.304Z,54.60
2022-08-04T18:25:52.277Z,54.10
2022-08-04T18:28:49.298Z,54.50
2022-08-04T18:31:46.177Z,55.10
2022-08-04T18:34:55.126Z,56.00
2022-08-04T18:41:09.456Z,56.70
2022-08-04T18:44:06.499Z,57.50
2022-08-04T18:47:22.311Z,56.50
2022-08-04T18:51:00.805Z,57.10
2022-08-04T18:53:37.435Z,58.00
2022-08-04T18:56:34.956Z,58.30
2022-08-04T18:59:33.004Z,57.70
2022-08-04T19:02:30.786Z,59.10
2022-08-04T19:05:37.752Z,59.20
2022-08-04T19:08:41.969Z,59.70
2022-08-04T19:11:54.763Z,60.20
2022-08-04T19:14:57.863Z,59.80
2022-08-04T19:17:59.840Z,60.40
2022-08-04T19:20:57.110Z,63.00
2022-08-04T19:24:28.244Z,62.20
2022-08-04T19:27:12.114Z,62.40
2022-08-04T19:30:09.702Z,63.10
2022-08-04T19:33:08.657Z,64.50
2022-08-04T19:36:06.597Z,62.40
2022-08-04T19:39:11.221Z,62.70
2022-08-04T19:42:08.578Z,62.40
2022-08-04T19:48:30.523Z,64.00
2022-08-04T19:51:30.363Z,64.80
2022-08-04T19:54:28.579Z,64.80
2022-08-04T19:57:35.682Z,65.70
2022-08-04T20:00:34.528Z,66.10
2022-08-04T20:04:09.174Z,65.50
2022-08-04T20:06:50.076Z,66.10
2022-08-04T20:09:53.539Z,66.20
2022-08-04T20:12:55.605Z,66.40
2022-08-04T20:15:58.086Z,68.10
2022-08-04T20:18:59.473Z,67.70
2022-08-04T20:22:00.146Z,65.80
2022-08-04T20:25:18.036Z,66.00
2022-08-04T20:28:36.566Z,65.50
2022-08-04T20:31:33.260Z,65.40
2022-08-04T20:34:41.545Z,67.00
2022-08-04T20:37:56.935Z,67.20
2022-08-04T20:40:58.955Z,68.10
2022-08-04T20:43:58.214Z,67.60
2022-08-04T20:46:55.075Z,67.70
2022-08-04T20:49:52.274Z,67.90
2022-08-04T20:52:49.926Z,67.50
2022-08-04T20:59:07.785Z,67.80
2022-08-04T21:02:06.278Z,68.30
2022-08-04T21:05:13.302Z,68.90
2022-08-04T21:08:10.137Z,67.90
2022-08-04T21:11:07.090Z,67.30
2022-08-04T21:14:05.977Z,68.20
2022-08-04T21:17:03.072Z,65.40
2022-08-04T21:20:00.861Z,66.90
2022-08-04T21:22:59.492Z,65.40
2022-08-04T21:26:03.116Z,64.90
2022-08-04T21:28:59.939Z,66.50
2022-08-04T21:31:56.777Z,67.30
2022-08-04T21:34:54.744Z,68.50
2022-08-04T21:37:56.533Z,69.20
2022-08-04T21:40:55.606Z,68.10
2022-08-04T21:43:52.871Z,68.70
2022-08-04T21:46:50.157Z,69.30
2022-08-04T21:49:56.053Z,70.50
2022-08-04T21:52:53.961Z,69.90
2022-08-04T21:56:04.976Z,70.70
2022-08-04T21:59:10.617Z,69.70
2022-08-04T22:02:08.553Z,68.80
2022-08-04T22:05:07.345Z,67.60
2022-08-04T22:08:05.514Z,69.10
2022-08-04T22:11:02.530Z,69.20
2022-08-04T22:14:10.975Z,68.60
2022-08-04T22:17:13.712Z,69.50
2022-08-04T22:20:27.246Z,71.40
2022-08-04T22:23:25.457Z,70.60
2022-08-04T22:26:26.970Z,69.10
2022-08-04T22:29:24.026Z,70.70
2022-08-04T22:32:20.840Z,71.70
2022-08-04T22:35:43.497Z,72.30
2022-08-04T22:38:48.636Z,71.30
2022-08-04T22:42:03.781Z,71.10
2022-08-04T22:45:02.037Z,72.90
2022-08-04T22:47:58.919Z,73.60
2022-08-04T22:50:55.908Z,74.90
2022-08-04T22:53:53.181Z,73.00
2022-08-04T22:56:50.010Z,70.60
2022-08-04T22:59:49.457Z,71.60
2022-08-04T23:02:46.313Z,72.70
2022-08-04T23:05:48.181Z,73.30
2022-08-04T23:08:48.443Z,73.30
2022-08-04T23:11:45.889Z,73.00
2022-08-04T23:14:47.362Z,75.60
2022-08-04T23:17:48.591Z,74.40
2022-08-04T23:20:47.407Z,76.20
2022-08-04T23:24:01.039Z,75.70
2022-08-04T23:27:00.490Z,76.30
2022-08-04T23:29:57.345Z,75.80
2022-08-04T23:32:54.266Z,75.10
2022-08-04T23:35:58.069Z,75.20
2022-08-04T23:38:55.185Z,77.60
2022-08-04T23:41:54.866Z,77.40
2022-08-04T23:44:54.575Z,76.60
2022-08-04T23:48:19.060Z,77.80
2022-08-04T23:51:14.845Z,79.70
2022-08-04T23:54:12.352Z,79.60
2022-08-04T23:57:31.478Z,80.60
